sensor_id;sensor_type;location;lat;lon;timestamp;P1;durP1;ratioP1;P2;durP2;ratioP2
48327;SDS011;34136;51.022;7.082;2022-11-18T00:02:17;6.00;;;2.05;;
48327;SDS011;34136;51.022;7.082;2022-11-18T00:05:22;9.18;;;2.33;;
48327;SDS011;34136;51.022;7.082;2022-11-18T00:08:08;10.55;;;2.50;;
48327;SDS011;34136;51.022;7.082;2022-11-18T00:10:54;7.80;;;2.03;;
48327;SDS011;34136;51.022;7.082;2022-11-18T00:13:41;4.68;;;1.80;;
48327;SDS011;34136;51.022;7.082;2022-11-18T00:16:27;5.72;;;2.03;;
48327;SDS011;34136;51.022;7.082;2022-11-18T00:19:13;6.20;;;1.70;;
48327;SDS011;34136;51.022;7.082;2022-11-18T00:22:00;3.35;;;1.85;;
48327;SDS011;34136;51.022;7.082;2022-11-18T00:24:47;5.50;;;2.30;;
48327;SDS011;34136;51.022;7.082;2022-11-18T00:27:33;6.78;;;2.08;;
48327;SDS011;34136;51.022;7.082;2022-11-18T00:30:19;5.45;;;1.98;;
48327;SDS011;34136;51.022;7.082;2022-11-18T00:33:05;6.70;;;2.00;;
48327;SDS011;34136;51.022;7.082;2022-11-18T00:36:10;5.65;;;2.10;;
48327;SDS011;34136;51.022;7.082;2022-11-18T00:38:57;5.80;;;2.35;;
48327;SDS011;34136;51.022;7.082;2022-11-18T00:41:43;6.55;;;2.00;;
48327;SDS011;34136;51.022;7.082;2022-11-18T00:44:30;5.70;;;1.83;;
48327;SDS011;34136;51.022;7.082;2022-11-18T00:47:16;9.43;;;2.15;;
48327;SDS011;34136;51.022;7.082;2022-11-18T00:50:02;8.48;;;2.20;;
48327;SDS011;34136;51.022;7.082;2022-11-18T00:53:07;5.85;;;1.95;;
48327;SDS011;34136;51.022;7.082;2022-11-18T00:55:53;4.97;;;1.90;;
48327;SDS011;34136;51.022;7.082;2022-11-18T00:58:58;8.55;;;2.08;;
48327;SDS011;34136;51.022;7.082;2022-11-18T01:01:44;7.20;;;2.35;;
48327;SDS011;34136;51.022;7.082;2022-11-18T01:04:48;5.43;;;2.00;;
48327;SDS011;34136;51.022;7.082;2022-11-18T01:07:53;7.15;;;2.10;;
48327;SDS011;34136;51.022;7.082;2022-11-18T01:10:58;9.63;;;2.10;;
48327;SDS011;34136;51.022;7.082;2022-11-18T01:14:02;5.78;;;1.80;;
48327;SDS011;34136;51.022;7.082;2022-11-18T01:17:07;5.70;;;2.20;;
48327;SDS011;34136;51.022;7.082;2022-11-18T01:19:54;5.65;;;2.00;;
48327;SDS011;34136;51.022;7.082;2022-11-18T01:22:40;7.20;;;2.05;;
48327;SDS011;34136;51.022;7.082;2022-11-18T01:25:27;7.40;;;2.25;;
48327;SDS011;34136;51.022;7.082;2022-11-18T01:28:13;6.22;;;1.85;;
48327;SDS011;34136;51.022;7.082;2022-11-18T01:31:19;5.03;;;1.60;;
48327;SDS011;34136;51.022;7.082;2022-11-18T01:34:06;8.55;;;2.00;;
48327;SDS011;34136;51.022;7.082;2022-11-18T01:36:52;5.75;;;1.80;;
48327;SDS011;34136;51.022;7.082;2022-11-18T01:39:57;7.57;;;2.30;;
48327;SDS011;34136;51.022;7.082;2022-11-18T01:42:43;7.82;;;1.88;;
48327;SDS011;34136;51.022;7.082;2022-11-18T01:45:37;7.20;;;2.13;;
48327;SDS011;34136;51.022;7.082;2022-11-18T01:48:28;7.90;;;2.30;;
48327;SDS011;34136;51.022;7.082;2022-11-18T01:55:04;6.35;;;2.40;;
48327;SDS011;34136;51.022;7.082;2022-11-18T01:58:00;6.10;;;1.75;;
48327;SDS011;34136;51.022;7.082;2022-11-18T02:00:51;8.48;;;2.10;;
48327;SDS011;34136;51.022;7.082;2022-11-18T02:03:38;7.55;;;2.05;;
48327;SDS011;34136;51.022;7.082;2022-11-18T02:06:25;6.63;;;1.85;;
48327;SDS011;34136;51.022;7.082;2022-11-18T02:09:12;7.63;;;1.90;;
48327;SDS011;34136;51.022;7.082;2022-11-18T02:12:20;4.95;;;2.00;;
48327;SDS011;34136;51.022;7.082;2022-11-18T02:15:07;4.18;;;1.70;;
48327;SDS011;34136;51.022;7.082;2022-11-18T02:20:49;7.90;;;2.10;;
48327;SDS011;34136;51.022;7.082;2022-11-18T02:23:56;8.65;;;2.40;;
48327;SDS011;34136;51.022;7.082;2022-11-18T02:30:20;8.10;;;2.05;;
48327;SDS011;34136;51.022;7.082;2022-11-18T02:33:27;8.65;;;2.80;;
48327;SDS011;34136;51.022;7.082;2022-11-18T02:36:46;7.83;;;2.10;;
48327;SDS011;34136;51.022;7.082;2022-11-18T02:40:04;3.97;;;1.60;;
48327;SDS011;34136;51.022;7.082;2022-11-18T02:46:09;6.28;;;1.90;;
48327;SDS011;34136;51.022;7.082;2022-11-18T02:49:00;7.65;;;2.30;;
48327;SDS011;34136;51.022;7.082;2022-11-18T02:52:10;7.20;;;2.30;;
48327;SDS011;34136;51.022;7.082;2022-11-18T02:55:16;7.30;;;2.25;;
48327;SDS011;34136;51.022;7.082;2022-11-18T02:58:22;5.22;;;1.90;;
48327;SDS011;34136;51.022;7.082;2022-11-18T03:01:22;4.97;;;2.05;;
48327;SDS011;34136;51.022;7.082;2022-11-18T03:04:11;7.85;;;2.58;;
48327;SDS011;34136;51.022;7.082;2022-11-18T03:10:18;6.28;;;2.00;;
48327;SDS011;34136;51.022;7.082;2022-11-18T03:13:27;6.53;;;2.20;;
48327;SDS011;34136;51.022;7.082;2022-11-18T03:16:40;8.10;;;2.05;;
48327;SDS011;34136;51.022;7.082;2022-11-18T03:26:27;5.75;;;2.05;;
48327;SDS011;34136;51.022;7.082;2022-11-18T03:29:20;6.15;;;2.10;;
48327;SDS011;34136;51.022;7.082;2022-11-18T03:32:22;6.47;;;2.25;;
48327;SDS011;34136;51.022;7.082;2022-11-18T03:35:13;8.77;;;2.47;;
48327;SDS011;34136;51.022;7.082;2022-11-18T03:38:05;6.97;;;2.15;;
48327;SDS011;34136;51.022;7.082;2022-11-18T03:41:14;8.25;;;2.03;;
48327;SDS011;34136;51.022;7.082;2022-11-18T03:44:13;8.60;;;2.25;;
48327;SDS011;34136;51.022;7.082;2022-11-18T03:47:08;6.57;;;2.15;;
48327;SDS011;34136;51.022;7.082;2022-11-18T03:50:00;8.48;;;2.05;;
48327;SDS011;34136;51.022;7.082;2022-11-18T03:53:08;7.68;;;1.90;;
48327;SDS011;34136;51.022;7.082;2022-11-18T03:56:08;7.45;;;2.25;;
48327;SDS011;34136;51.022;7.082;2022-11-18T04:01:56;7.18;;;2.33;;
48327;SDS011;34136;51.022;7.082;2022-11-18T04:04:49;6.18;;;2.08;;
48327;SDS011;34136;51.022;7.082;2022-11-18T04:10:32;6.65;;;2.03;;
48327;SDS011;34136;51.022;7.082;2022-11-18T04:13:24;7.60;;;1.83;;
48327;SDS011;34136;51.022;7.082;2022-11-18T04:16:17;7.93;;;2.42;;
48327;SDS011;34136;51.022;7.082;2022-11-18T04:19:03;6.57;;;2.10;;
48327;SDS011;34136;51.022;7.082;2022-11-18T04:21:49;7.35;;;2.20;;
48327;SDS011;34136;51.022;7.082;2022-11-18T04:24:36;5.85;;;2.00;;
48327;SDS011;34136;51.022;7.082;2022-11-18T04:27:23;7.10;;;2.38;;
48327;SDS011;34136;51.022;7.082;2022-11-18T04:30:09;6.45;;;2.63;;
48327;SDS011;34136;51.022;7.082;2022-11-18T04:32:56;5.07;;;2.30;;
48327;SDS011;34136;51.022;7.082;2022-11-18T04:35:42;5.93;;;1.95;;
48327;SDS011;34136;51.022;7.082;2022-11-18T04:38:31;7.35;;;2.78;;
48327;SDS011;34136;51.022;7.082;2022-11-18T04:41:18;5.65;;;2.10;;
48327;SDS011;34136;51.022;7.082;2022-11-18T04:44:04;8.52;;;2.38;;
48327;SDS011;34136;51.022;7.082;2022-11-18T04:46:50;10.50;;;2.63;;
48327;SDS011;34136;51.022;7.082;2022-11-18T04:49:37;7.35;;;2.20;;
48327;SDS011;34136;51.022;7.082;2022-11-18T04:52:24;8.18;;;2.33;;
48327;SDS011;34136;51.022;7.082;2022-11-18T04:55:10;10.38;;;2.88;;
48327;SDS011;34136;51.022;7.082;2022-11-18T04:57:56;11.65;;;3.10;;
48327;SDS011;34136;51.022;7.082;2022-11-18T05:00:42;9.20;;;3.05;;
48327;SDS011;34136;51.022;7.082;2022-11-18T05:03:29;7.10;;;2.90;;
48327;SDS011;34136;51.022;7.082;2022-11-18T05:06:15;9.60;;;3.08;;
48327;SDS011;34136;51.022;7.082;2022-11-18T05:09:01;8.80;;;2.60;;
48327;SDS011;34136;51.022;7.082;2022-11-18T05:11:48;11.65;;;2.92;;
48327;SDS011;34136;51.022;7.082;2022-11-18T05:14:34;6.72;;;2.40;;
48327;SDS011;34136;51.022;7.082;2022-11-18T05:17:21;6.75;;;2.20;;
48327;SDS011;34136;51.022;7.082;2022-11-18T05:20:10;6.72;;;2.15;;
48327;SDS011;34136;51.022;7.082;2022-11-18T05:22:57;7.45;;;2.60;;
48327;SDS011;34136;51.022;7.082;2022-11-18T05:25:43;8.70;;;2.85;;
48327;SDS011;34136;51.022;7.082;2022-11-18T05:28:29;7.75;;;2.75;;
48327;SDS011;34136;51.022;7.082;2022-11-18T05:31:16;8.35;;;2.85;;
48327;SDS011;34136;51.022;7.082;2022-11-18T05:34:02;13.25;;;2.60;;
48327;SDS011;34136;51.022;7.082;2022-11-18T05:36:48;8.63;;;2.90;;
48327;SDS011;34136;51.022;7.082;2022-11-18T05:39:34;10.55;;;2.92;;
48327;SDS011;34136;51.022;7.082;2022-11-18T05:42:20;7.50;;;2.33;;
48327;SDS011;34136;51.022;7.082;2022-11-18T05:45:06;7.50;;;2.70;;
48327;SDS011;34136;51.022;7.082;2022-11-18T05:47:53;8.73;;;2.42;;
48327;SDS011;34136;51.022;7.082;2022-11-18T05:50:39;8.48;;;2.53;;
48327;SDS011;34136;51.022;7.082;2022-11-18T05:53:26;5.40;;;2.40;;
48327;SDS011;34136;51.022;7.082;2022-11-18T05:59:21;9.38;;;2.97;;
48327;SDS011;34136;51.022;7.082;2022-11-18T06:02:13;8.32;;;3.00;;
48327;SDS011;34136;51.022;7.082;2022-11-18T06:05:03;7.57;;;2.60;;
48327;SDS011;34136;51.022;7.082;2022-11-18T06:07:49;9.02;;;2.88;;
48327;SDS011;34136;51.022;7.082;2022-11-18T06:10:37;7.55;;;2.70;;
48327;SDS011;34136;51.022;7.082;2022-11-18T06:13:28;8.48;;;3.10;;
48327;SDS011;34136;51.022;7.082;2022-11-18T06:16:21;7.43;;;2.30;;
48327;SDS011;34136;51.022;7.082;2022-11-18T06:19:12;8.13;;;2.80;;
48327;SDS011;34136;51.022;7.082;2022-11-18T06:21:58;8.43;;;2.70;;
48327;SDS011;34136;51.022;7.082;2022-11-18T06:24:45;9.27;;;3.42;;
48327;SDS011;34136;51.022;7.082;2022-11-18T06:27:31;9.00;;;3.28;;
48327;SDS011;34136;51.022;7.082;2022-11-18T06:30:19;8.68;;;2.67;;
48327;SDS011;34136;51.022;7.082;2022-11-18T06:33:05;9.60;;;3.47;;
48327;SDS011;34136;51.022;7.082;2022-11-18T06:35:52;11.02;;;3.80;;
48327;SDS011;34136;51.022;7.082;2022-11-18T06:38:38;8.68;;;4.28;;
48327;SDS011;34136;51.022;7.082;2022-11-18T06:41:24;10.40;;;4.40;;
48327;SDS011;34136;51.022;7.082;2022-11-18T06:44:10;11.25;;;4.20;;
48327;SDS011;34136;51.022;7.082;2022-11-18T06:46:57;9.88;;;3.88;;
48327;SDS011;34136;51.022;7.082;2022-11-18T06:49:43;8.32;;;3.90;;
48327;SDS011;34136;51.022;7.082;2022-11-18T06:52:29;7.60;;;3.80;;
48327;SDS011;34136;51.022;7.082;2022-11-18T06:55:15;8.90;;;3.95;;
48327;SDS011;34136;51.022;7.082;2022-11-18T06:58:01;11.48;;;4.03;;
48327;SDS011;34136;51.022;7.082;2022-11-18T07:00:47;11.75;;;3.67;;
48327;SDS011;34136;51.022;7.082;2022-11-18T07:03:33;10.60;;;3.65;;
48327;SDS011;34136;51.022;7.082;2022-11-18T07:06:20;10.45;;;4.07;;
48327;SDS011;34136;51.022;7.082;2022-11-18T07:09:08;12.90;;;4.93;;
48327;SDS011;34136;51.022;7.082;2022-11-18T07:14:44;19.70;;;6.57;;
48327;SDS011;34136;51.022;7.082;2022-11-18T07:17:30;17.90;;;6.78;;
48327;SDS011;34136;51.022;7.082;2022-11-18T07:20:16;16.50;;;7.15;;
48327;SDS011;34136;51.022;7.082;2022-11-18T07:23:21;14.50;;;5.63;;
48327;SDS011;34136;51.022;7.082;2022-11-18T07:26:07;10.50;;;5.18;;
48327;SDS011;34136;51.022;7.082;2022-11-18T07:28:54;14.05;;;4.63;;
48327;SDS011;34136;51.022;7.082;2022-11-18T07:31:41;13.93;;;5.05;;
48327;SDS011;34136;51.022;7.082;2022-11-18T07:34:27;8.88;;;5.10;;
48327;SDS011;34136;51.022;7.082;2022-11-18T07:37:13;13.80;;;4.47;;
48327;SDS011;34136;51.022;7.082;2022-11-18T07:39:59;11.02;;;4.78;;
48327;SDS011;34136;51.022;7.082;2022-11-18T07:43:24;13.93;;;4.18;;
48327;SDS011;34136;51.022;7.082;2022-11-18T07:46:18;9.63;;;4.22;;
48327;SDS011;34136;51.022;7.082;2022-11-18T07:49:06;7.80;;;4.45;;
48327;SDS011;34136;51.022;7.082;2022-11-18T07:51:53;9.73;;;3.88;;
48327;SDS011;34136;51.022;7.082;2022-11-18T07:54:40;10.85;;;5.20;;
48327;SDS011;34136;51.022;7.082;2022-11-18T07:57:26;13.82;;;6.60;;
48327;SDS011;34136;51.022;7.082;2022-11-18T08:00:12;21.85;;;11.13;;
48327;SDS011;34136;51.022;7.082;2022-11-18T08:02:59;16.75;;;10.60;;
48327;SDS011;34136;51.022;7.082;2022-11-18T08:05:46;12.32;;;7.53;;
48327;SDS011;34136;51.022;7.082;2022-11-18T08:08:32;13.25;;;6.47;;
48327;SDS011;34136;51.022;7.082;2022-11-18T08:11:19;9.52;;;4.93;;
48327;SDS011;34136;51.022;7.082;2022-11-18T08:14:05;11.73;;;4.63;;
48327;SDS011;34136;51.022;7.082;2022-11-18T08:16:51;10.93;;;5.25;;
48327;SDS011;34136;51.022;7.082;2022-11-18T08:19:37;12.20;;;5.75;;
48327;SDS011;34136;51.022;7.082;2022-11-18T08:22:27;10.02;;;5.65;;
48327;SDS011;34136;51.022;7.082;2022-11-18T08:25:41;12.88;;;5.70;;
48327;SDS011;34136;51.022;7.082;2022-11-18T08:28:30;12.00;;;5.75;;
48327;SDS011;34136;51.022;7.082;2022-11-18T08:31:26;12.63;;;6.00;;
48327;SDS011;34136;51.022;7.082;2022-11-18T08:34:14;10.00;;;5.40;;
48327;SDS011;34136;51.022;7.082;2022-11-18T08:37:00;10.88;;;5.40;;
48327;SDS011;34136;51.022;7.082;2022-11-18T08:39:47;10.57;;;4.22;;
48327;SDS011;34136;51.022;7.082;2022-11-18T08:42:33;15.50;;;5.45;;
48327;SDS011;34136;51.022;7.082;2022-11-18T08:45:19;14.85;;;6.35;;
48327;SDS011;34136;51.022;7.082;2022-11-18T08:48:05;13.38;;;6.28;;
48327;SDS011;34136;51.022;7.082;2022-11-18T08:50:51;12.82;;;6.13;;
48327;SDS011;34136;51.022;7.082;2022-11-18T08:53:38;13.27;;;5.78;;
48327;SDS011;34136;51.022;7.082;2022-11-18T08:56:24;13.10;;;5.80;;
48327;SDS011;34136;51.022;7.082;2022-11-18T08:59:10;10.15;;;4.40;;
48327;SDS011;34136;51.022;7.082;2022-11-18T09:01:57;9.07;;;4.40;;
48327;SDS011;34136;51.022;7.082;2022-11-18T09:04:45;13.45;;;4.60;;
48327;SDS011;34136;51.022;7.082;2022-11-18T09:07:35;8.18;;;3.25;;
48327;SDS011;34136;51.022;7.082;2022-11-18T09:10:21;8.75;;;3.03;;
48327;SDS011;34136;51.022;7.082;2022-11-18T09:13:07;9.57;;;3.45;;
48327;SDS011;34136;51.022;7.082;2022-11-18T09:15:53;10.20;;;3.50;;
48327;SDS011;34136;51.022;7.082;2022-11-18T09:18:42;8.80;;;3.05;;
48327;SDS011;34136;51.022;7.082;2022-11-18T09:21:29;10.35;;;3.20;;
48327;SDS011;34136;51.022;7.082;2022-11-18T09:24:15;7.43;;;3.03;;
48327;SDS011;34136;51.022;7.082;2022-11-18T09:27:02;8.98;;;3.38;;
48327;SDS011;34136;51.022;7.082;2022-11-18T09:29:50;8.48;;;3.70;;
48327;SDS011;34136;51.022;7.082;2022-11-18T09:32:36;7.88;;;3.58;;
48327;SDS011;34136;51.022;7.082;2022-11-18T09:35:22;9.30;;;3.58;;
48327;SDS011;34136;51.022;7.082;2022-11-18T09:38:08;9.52;;;3.10;;
48327;SDS011;34136;51.022;7.082;2022-11-18T09:41:03;7.32;;;2.92;;
48327;SDS011;34136;51.022;7.082;2022-11-18T09:50:20;6.40;;;2.63;;
48327;SDS011;34136;51.022;7.082;2022-11-18T09:56:04;7.63;;;3.00;;
48327;SDS011;34136;51.022;7.082;2022-11-18T09:59:19;10.30;;;2.97;;
48327;SDS011;34136;51.022;7.082;2022-11-18T10:05:00;9.55;;;3.22;;
48327;SDS011;34136;51.022;7.082;2022-11-18T10:08:21;8.65;;;2.53;;
48327;SDS011;34136;51.022;7.082;2022-11-18T10:21:26;8.45;;;2.33;;
48327;SDS011;34136;51.022;7.082;2022-11-18T10:24:31;9.73;;;2.38;;
48327;SDS011;34136;51.022;7.082;2022-11-18T10:30:16;11.38;;;2.85;;
48327;SDS011;34136;51.022;7.082;2022-11-18T10:33:22;9.88;;;3.10;;
48327;SDS011;34136;51.022;7.082;2022-11-18T10:39:17;8.27;;;4.20;;
48327;SDS011;34136;51.022;7.082;2022-11-18T10:42:04;13.45;;;4.80;;
48327;SDS011;34136;51.022;7.082;2022-11-18T10:44:52;9.30;;;2.83;;
48327;SDS011;34136;51.022;7.082;2022-11-18T10:51:22;8.40;;;2.42;;
48327;SDS011;34136;51.022;7.082;2022-11-18T10:57:34;6.15;;;2.25;;
48327;SDS011;34136;51.022;7.082;2022-11-18T11:03:32;8.88;;;3.50;;
48327;SDS011;34136;51.022;7.082;2022-11-18T11:09:27;8.55;;;2.45;;
48327;SDS011;34136;51.022;7.082;2022-11-18T11:12:17;15.70;;;2.80;;
48327;SDS011;34136;51.022;7.082;2022-11-18T13:36:30;8.60;;;2.70;;
48327;SDS011;34136;51.022;7.082;2022-11-18T13:39:23;10.30;;;2.60;;
48327;SDS011;34136;51.022;7.082;2022-11-18T13:42:19;9.38;;;2.45;;
48327;SDS011;34136;51.022;7.082;2022-11-18T13:45:14;8.77;;;2.42;;
48327;SDS011;34136;51.022;7.082;2022-11-18T13:48:10;12.15;;;3.28;;
48327;SDS011;34136;51.022;7.082;2022-11-18T13:51:19;9.13;;;2.67;;
48327;SDS011;34136;51.022;7.082;2022-11-18T13:54:58;10.38;;;2.80;;
48327;SDS011;34136;51.022;7.082;2022-11-18T13:57:47;4.95;;;2.10;;
48327;SDS011;34136;51.022;7.082;2022-11-18T14:00:40;9.68;;;2.60;;
48327;SDS011;34136;51.022;7.082;2022-11-18T14:03:28;10.30;;;2.72;;
48327;SDS011;34136;51.022;7.082;2022-11-18T14:06:29;8.52;;;2.28;;
48327;SDS011;34136;51.022;7.082;2022-11-18T14:09:18;7.75;;;2.50;;
48327;SDS011;34136;51.022;7.082;2022-11-18T14:18:24;46.08;;;22.40;;
48327;SDS011;34136;51.022;7.082;2022-11-18T14:21:26;16.77;;;7.90;;
48327;SDS011;34136;51.022;7.082;2022-11-18T14:24:14;15.93;;;6.00;;
48327;SDS011;34136;51.022;7.082;2022-11-18T14:27:26;10.00;;;4.35;;
48327;SDS011;34136;51.022;7.082;2022-11-18T14:30:23;9.48;;;4.15;;
48327;SDS011;34136;51.022;7.082;2022-11-18T14:36:10;11.10;;;2.92;;
48327;SDS011;34136;51.022;7.082;2022-11-18T14:38:59;10.18;;;3.83;;
48327;SDS011;34136;51.022;7.082;2022-11-18T14:41:45;8.57;;;3.83;;
48327;SDS011;34136;51.022;7.082;2022-11-18T14:44:32;7.00;;;3.42;;
48327;SDS011;34136;51.022;7.082;2022-11-18T14:47:25;11.90;;;3.45;;
48327;SDS011;34136;51.022;7.082;2022-11-18T14:50:31;10.95;;;3.70;;
48327;SDS011;34136;51.022;7.082;2022-11-18T14:53:17;8.25;;;3.00;;
48327;SDS011;34136;51.022;7.082;2022-11-18T14:56:07;14.68;;;3.70;;
48327;SDS011;34136;51.022;7.082;2022-11-18T14:59:05;7.50;;;3.33;;
48327;SDS011;34136;51.022;7.082;2022-11-18T15:01:52;8.15;;;3.10;;
48327;SDS011;34136;51.022;7.082;2022-11-18T15:04:57;10.88;;;3.50;;
48327;SDS011;34136;51.022;7.082;2022-11-18T15:07:43;7.75;;;2.72;;
48327;SDS011;34136;51.022;7.082;2022-11-18T15:10:29;5.65;;;2.50;;
48327;SDS011;34136;51.022;7.082;2022-11-18T15:13:34;7.47;;;2.47;;
48327;SDS011;34136;51.022;7.082;2022-11-18T15:16:22;6.25;;;2.47;;
48327;SDS011;34136;51.022;7.082;2022-11-18T15:19:11;8.80;;;2.80;;
48327;SDS011;34136;51.022;7.082;2022-11-18T15:21:59;7.05;;;2.78;;
48327;SDS011;34136;51.022;7.082;2022-11-18T15:24:45;10.25;;;2.72;;
48327;SDS011;34136;51.022;7.082;2022-11-18T15:27:31;8.82;;;3.00;;
48327;SDS011;34136;51.022;7.082;2022-11-18T15:30:17;8.20;;;2.90;;
48327;SDS011;34136;51.022;7.082;2022-11-18T15:33:03;10.68;;;3.22;;
48327;SDS011;34136;51.022;7.082;2022-11-18T15:35:49;8.77;;;3.65;;
48327;SDS011;34136;51.022;7.082;2022-11-18T15:38:39;7.78;;;3.15;;
48327;SDS011;34136;51.022;7.082;2022-11-18T15:41:37;8.70;;;3.33;;
48327;SDS011;34136;51.022;7.082;2022-11-18T15:44:46;9.88;;;3.40;;
48327;SDS011;34136;51.022;7.082;2022-11-18T15:50:31;13.02;;;4.22;;
48327;SDS011;34136;51.022;7.082;2022-11-18T15:53:35;8.73;;;3.35;;
48327;SDS011;34136;51.022;7.082;2022-11-18T15:59:08;9.20;;;3.50;;
48327;SDS011;34136;51.022;7.082;2022-11-18T16:01:56;10.75;;;3.60;;
48327;SDS011;34136;51.022;7.082;2022-11-18T16:05:01;11.07;;;3.58;;
48327;SDS011;34136;51.022;7.082;2022-11-18T17:15:24;15.05;;;6.22;;
48327;SDS011;34136;51.022;7.082;2022-11-18T17:18:21;13.27;;;6.00;;
48327;SDS011;34136;51.022;7.082;2022-11-18T17:24:01;13.85;;;5.47;;
48327;SDS011;34136;51.022;7.082;2022-11-18T17:26:49;14.20;;;5.65;;
48327;SDS011;34136;51.022;7.082;2022-11-18T17:29:37;12.38;;;4.47;;
48327;SDS011;34136;51.022;7.082;2022-11-18T17:32:22;10.38;;;4.57;;
48327;SDS011;34136;51.022;7.082;2022-11-18T17:35:09;11.68;;;5.50;;
48327;SDS011;34136;51.022;7.082;2022-11-18T17:37:54;14.10;;;6.63;;
48327;SDS011;34136;51.022;7.082;2022-11-18T17:40:40;13.55;;;5.50;;
48327;SDS011;34136;51.022;7.082;2022-11-18T17:43:27;10.48;;;5.70;;
48327;SDS011;34136;51.022;7.082;2022-11-18T17:46:13;13.00;;;5.43;;
48327;SDS011;34136;51.022;7.082;2022-11-18T17:48:59;18.73;;;6.03;;
48327;SDS011;34136;51.022;7.082;2022-11-18T17:51:47;12.85;;;5.88;;
48327;SDS011;34136;51.022;7.082;2022-11-18T17:54:34;16.67;;;6.85;;
48327;SDS011;34136;51.022;7.082;2022-11-18T17:57:20;14.05;;;6.22;;
48327;SDS011;34136;51.022;7.082;2022-11-18T18:00:06;18.98;;;6.47;;
48327;SDS011;34136;51.022;7.082;2022-11-18T18:02:53;17.83;;;6.45;;
48327;SDS011;34136;51.022;7.082;2022-11-18T18:05:40;10.02;;;6.15;;
48327;SDS011;34136;51.022;7.082;2022-11-18T18:08:26;12.88;;;6.03;;
48327;SDS011;34136;51.022;7.082;2022-11-18T18:11:30;10.35;;;5.43;;
48327;SDS011;34136;51.022;7.082;2022-11-18T18:14:16;14.80;;;6.22;;
48327;SDS011;34136;51.022;7.082;2022-11-18T18:17:02;14.93;;;6.63;;
48327;SDS011;34136;51.022;7.082;2022-11-18T18:19:49;15.98;;;6.85;;
48327;SDS011;34136;51.022;7.082;2022-11-18T18:22:38;15.23;;;6.18;;
48327;SDS011;34136;51.022;7.082;2022-11-18T18:25:24;13.43;;;6.30;;
48327;SDS011;34136;51.022;7.082;2022-11-18T18:28:10;13.75;;;6.53;;
48327;SDS011;34136;51.022;7.082;2022-11-18T18:31:03;16.33;;;6.25;;
48327;SDS011;34136;51.022;7.082;2022-11-18T18:33:51;12.73;;;6.55;;
48327;SDS011;34136;51.022;7.082;2022-11-18T18:36:37;21.05;;;9.77;;
48327;SDS011;34136;51.022;7.082;2022-11-18T18:39:31;16.40;;;8.63;;
48327;SDS011;34136;51.022;7.082;2022-11-18T18:42:18;14.38;;;9.10;;
48327;SDS011;34136;51.022;7.082;2022-11-18T18:45:04;12.98;;;8.25;;
48327;SDS011;34136;51.022;7.082;2022-11-18T18:47:50;12.10;;;7.50;;
48327;SDS011;34136;51.022;7.082;2022-11-18T18:50:37;17.20;;;7.20;;
48327;SDS011;34136;51.022;7.082;2022-11-18T18:53:23;12.80;;;7.05;;
48327;SDS011;34136;51.022;7.082;2022-11-18T18:56:09;13.55;;;7.18;;
48327;SDS011;34136;51.022;7.082;2022-11-18T18:59:14;18.73;;;9.90;;
48327;SDS011;34136;51.022;7.082;2022-11-18T19:02:00;16.52;;;9.30;;
48327;SDS011;34136;51.022;7.082;2022-11-18T19:04:47;14.10;;;8.32;;
48327;SDS011;34136;51.022;7.082;2022-11-18T19:07:33;16.45;;;8.68;;
48327;SDS011;34136;51.022;7.082;2022-11-18T19:10:20;15.13;;;8.65;;
48327;SDS011;34136;51.022;7.082;2022-11-18T19:13:06;16.25;;;7.28;;
48327;SDS011;34136;51.022;7.082;2022-11-18T19:15:52;12.50;;;7.60;;
48327;SDS011;34136;51.022;7.082;2022-11-18T19:18:39;14.43;;;8.30;;
48327;SDS011;34136;51.022;7.082;2022-11-18T19:21:25;14.80;;;8.15;;
48327;SDS011;34136;51.022;7.082;2022-11-18T19:24:14;15.38;;;8.88;;
48327;SDS011;34136;51.022;7.082;2022-11-18T19:27:01;17.25;;;8.10;;
48327;SDS011;34136;51.022;7.082;2022-11-18T19:29:47;17.45;;;9.77;;
48327;SDS011;34136;51.022;7.082;2022-11-18T19:32:34;15.68;;;10.25;;
48327;SDS011;34136;51.022;7.082;2022-11-18T19:35:24;11.05;;;7.68;;
48327;SDS011;34136;51.022;7.082;2022-11-18T19:38:10;14.82;;;7.93;;
48327;SDS011;34136;51.022;7.082;2022-11-18T19:41:15;16.02;;;8.32;;
48327;SDS011;34136;51.022;7.082;2022-11-18T19:44:02;14.98;;;9.10;;
48327;SDS011;34136;51.022;7.082;2022-11-18T19:46:48;14.18;;;8.48;;
48327;SDS011;34136;51.022;7.082;2022-11-18T19:49:34;11.38;;;8.20;;
48327;SDS011;34136;51.022;7.082;2022-11-18T19:52:20;15.43;;;8.40;;
48327;SDS011;34136;51.022;7.082;2022-11-18T19:55:07;13.40;;;8.02;;
48327;SDS011;34136;51.022;7.082;2022-11-18T19:57:53;11.30;;;7.50;;
48327;SDS011;34136;51.022;7.082;2022-11-18T20:00:40;11.70;;;8.07;;
48327;SDS011;34136;51.022;7.082;2022-11-18T20:03:26;10.68;;;7.50;;
48327;SDS011;34136;51.022;7.082;2022-11-18T20:06:13;12.85;;;8.20;;
48327;SDS011;34136;51.022;7.082;2022-11-18T20:08:59;33.38;;;16.63;;
48327;SDS011;34136;51.022;7.082;2022-11-18T20:11:45;25.15;;;13.00;;
48327;SDS011;34136;51.022;7.082;2022-11-18T20:14:31;34.05;;;16.77;;
48327;SDS011;34136;51.022;7.082;2022-11-18T22:21:14;15.63;;;13.32;;
48327;SDS011;34136;51.022;7.082;2022-11-18T22:24:20;19.13;;;13.45;;
48327;SDS011;34136;51.022;7.082;2022-11-18T22:27:07;20.58;;;15.25;;
48327;SDS011;34136;51.022;7.082;2022-11-18T22:29:53;21.40;;;19.08;;
48327;SDS011;34136;51.022;7.082;2022-11-18T22:32:39;21.77;;;18.80;;
48327;SDS011;34136;51.022;7.082;2022-11-18T22:35:26;21.15;;;18.67;;
48327;SDS011;34136;51.022;7.082;2022-11-18T22:38:12;19.35;;;16.27;;
48327;SDS011;34136;51.022;7.082;2022-11-18T22:41:02;16.35;;;14.23;;
48327;SDS011;34136;51.022;7.082;2022-11-18T22:43:56;16.02;;;13.65;;
48327;SDS011;34136;51.022;7.082;2022-11-18T22:47:01;16.05;;;13.18;;
48327;SDS011;34136;51.022;7.082;2022-11-18T22:49:47;15.90;;;12.75;;
48327;SDS011;34136;51.022;7.082;2022-11-18T22:52:52;16.55;;;13.10;;
48327;SDS011;34136;51.022;7.082;2022-11-18T22:55:39;17.50;;;12.90;;
48327;SDS011;34136;51.022;7.082;2022-11-18T22:58:25;17.73;;;13.10;;
48327;SDS011;34136;51.022;7.082;2022-11-18T23:01:12;14.85;;;13.18;;
48327;SDS011;34136;51.022;7.082;2022-11-18T23:04:18;17.23;;;13.75;;
48327;SDS011;34136;51.022;7.082;2022-11-18T23:07:05;16.77;;;13.38;;
48327;SDS011;34136;51.022;7.082;2022-11-18T23:09:51;15.48;;;13.50;;
48327;SDS011;34136;51.022;7.082;2022-11-18T23:12:37;16.05;;;13.95;;
48327;SDS011;34136;51.022;7.082;2022-11-18T23:15:23;18.17;;;14.48;;
48327;SDS011;34136;51.022;7.082;2022-11-18T23:18:28;17.77;;;14.13;;
48327;SDS011;34136;51.022;7.082;2022-11-18T23:21:33;15.95;;;14.27;;
48327;SDS011;34136;51.022;7.082;2022-11-18T23:24:23;16.20;;;14.50;;
48327;SDS011;34136;51.022;7.082;2022-11-18T23:27:10;16.15;;;14.18;;
48327;SDS011;34136;51.022;7.082;2022-11-18T23:29:56;17.50;;;15.60;;
48327;SDS011;34136;51.022;7.082;2022-11-18T23:32:42;19.67;;;17.20;;
48327;SDS011;34136;51.022;7.082;2022-11-18T23:35:28;30.88;;;27.02;;
48327;SDS011;34136;51.022;7.082;2022-11-18T23:38:14;24.42;;;21.75;;
48327;SDS011;34136;51.022;7.082;2022-11-18T23:41:01;20.70;;;18.30;;
48327;SDS011;34136;51.022;7.082;2022-11-18T23:44:07;18.60;;;16.40;;
48327;SDS011;34136;51.022;7.082;2022-11-18T23:47:12;20.00;;;18.00;;
48327;SDS011;34136;51.022;7.082;2022-11-18T23:49:58;19.80;;;17.67;;
48327;SDS011;34136;51.022;7.082;2022-11-18T23:52:44;18.77;;;16.05;;
48327;SDS011;34136;51.022;7.082;2022-11-18T23:55:30;19.88;;;16.27;;
48327;SDS011;34136;51.022;7.082;2022-11-18T23:58:16;18.33;;;15.90;;
